Time;durP1;ratioP1;P1;durP2;ratioP2;P2;SDS_P1;SDS_P2;PMS_P1;PMS_P2;Temp;Humidity;BMP_temperature;BMP_pressure;BME280_temperature;BME280_humidity;BME280_pressure;Samples;Min_cycle;Max_cycle;Signal;HPM_P1;HPM_P2
2021/12/26 00:02:07;;;;;;;5.95;2.47;;;-6.00;99.90;;;;;;4972722;28;20381;-80
2021/12/26 00:04:33;;;;;;;6.00;2.25;;;-6.00;99.90;;;;;;4956580;28;20088;-80
2021/12/26 00:07:00;;;;;;;5.22;2.42;;;-5.90;99.90;;;;;;4956386;28;20043;-80
2021/12/26 00:09:25;;;;;;;6.90;2.33;;;-5.90;99.90;;;;;;4937217;29;20075;-80
2021/12/26 00:11:51;;;;;;;7.75;2.50;;;-5.90;99.90;;;;;;4920525;29;20040;-80
2021/12/26 00:14:17;;;;;;;5.70;2.40;;;-6.00;99.90;;;;;;4937605;29;20559;-80
2021/12/26 00:16:44;;;;;;;6.07;2.20;;;-6.10;99.90;;;;;;4952772;29;20043;-80
2021/12/26 00:19:10;;;;;;;6.95;2.60;;;-6.00;99.90;;;;;;4921530;29;20120;-80
2021/12/26 00:21:36;;;;;;;6.20;2.53;;;-6.00;99.90;;;;;;4936715;29;20058;-80
2021/12/26 00:24:02;;;;;;;5.80;2.50;;;-6.20;99.90;;;;;;4905623;29;20074;-80
2021/12/26 00:26:32;;;;;;;5.40;2.67;;;-6.30;99.90;;;;;;4904418;29;20414;-80
2021/12/26 00:28:58;;;;;;;7.10;2.38;;;-6.20;99.90;;;;;;4952745;29;20044;-80
2021/12/26 00:31:24;;;;;;;5.57;2.22;;;-6.20;99.90;;;;;;4952526;29;20098;-80
2021/12/26 00:33:50;;;;;;;5.03;2.20;;;-6.20;99.90;;;;;;4905354;29;20040;-80
2021/12/26 00:36:15;;;;;;;6.85;2.40;;;-6.20;99.90;;;;;;4936678;29;20039;-80
2021/12/26 00:38:41;;;;;;;6.53;2.35;;;-6.20;99.90;;;;;;4952979;29;20039;-80
2021/12/26 00:41:07;;;;;;;6.55;2.50;;;-6.20;99.90;;;;;;4935763;29;20492;-80
2021/12/26 00:43:33;;;;;;;7.18;2.78;;;-6.30;99.90;;;;;;4936448;29;20046;-81
2021/12/26 00:46:00;;;;;;;6.75;2.42;;;-6.30;99.90;;;;;;4904889;29;20040;-81
2021/12/26 00:48:26;;;;;;;5.43;2.40;;;-6.30;99.90;;;;;;4937086;29;20052;-81
2021/12/26 00:50:51;;;;;;;4.82;2.38;;;-6.20;99.90;;;;;;4936710;29;20047;-80
2021/12/26 00:53:17;;;;;;;5.15;2.28;;;-6.20;99.90;;;;;;4952646;29;20044;-80
2021/12/26 00:55:43;;;;;;;6.35;2.25;;;-6.20;99.90;;;;;;4935108;29;20047;-80
2021/12/26 00:58:10;;;;;;;4.80;2.15;;;-6.20;99.90;;;;;;4950154;29;20388;-80
2021/12/26 01:00:40;;;;;;;6.22;2.25;;;-6.20;99.90;;;;;;4955057;29;20047;-80
2021/12/26 01:03:07;;;;;;;7.47;2.40;;;-6.30;99.90;;;;;;4955366;29;20384;-80
2021/12/26 01:05:36;;;;;;;3.15;1.45;;;-6.20;99.90;;;;;;4939133;29;20097;-80
2021/12/26 01:08:04;;;;;;;6.70;1.80;;;-6.10;99.90;;;;;;4971285;28;20039;-80
2021/12/26 01:10:57;;;;;;;6.90;2.05;;;-6.00;99.90;;;;;;4954144;28;20039;-80
2021/12/26 01:13:36;;;;;;;5.75;2.15;;;-6.00;99.90;;;;;;4971287;28;20491;-80
2021/12/26 01:16:05;;;;;;;5.72;2.20;;;-6.10;99.90;;;;;;4955182;29;20043;-80
2021/12/26 01:18:34;;;;;;;5.93;1.92;;;-6.20;99.90;;;;;;4971213;28;20134;-81
2021/12/26 01:21:16;;;;;;;7.00;2.40;;;-6.20;99.90;;;;;;4970348;28;20043;-81
2021/12/26 01:23:44;;;;;;;5.03;2.10;;;-6.20;99.90;;;;;;4957336;28;20126;-81
2021/12/26 01:26:10;;;;;;;5.63;2.45;;;-6.30;99.90;;;;;;4954045;28;20086;-81
2021/12/26 01:28:35;;;;;;;5.10;2.10;;;-6.30;99.90;;;;;;4922919;29;20047;-81
2021/12/26 01:31:02;;;;;;;5.30;2.22;;;-6.30;99.90;;;;;;4954636;29;20035;-81
2021/12/26 01:33:28;;;;;;;5.55;2.15;;;-6.40;99.90;;;;;;4955213;29;20405;-81
2021/12/26 01:35:55;;;;;;;6.30;2.50;;;-6.40;99.90;;;;;;4949409;29;20087;-81
2021/12/26 01:38:21;;;;;;;4.65;2.00;;;-6.50;99.90;;;;;;4903930;29;20048;-81
2021/12/26 01:40:51;;;;;;;5.72;2.00;;;-6.50;99.90;;;;;;4934512;29;20062;-81
2021/12/26 01:43:20;;;;;;;5.75;2.03;;;-6.40;99.90;;;;;;4935334;29;20043;-81
2021/12/26 01:45:47;;;;;;;5.75;2.15;;;-6.30;99.90;;;;;;4903946;29;20051;-81
2021/12/26 01:48:13;;;;;;;6.15;2.03;;;-6.20;99.90;;;;;;4903738;29;20129;-81
2021/12/26 01:50:40;;;;;;;5.57;2.28;;;-6.20;99.90;;;;;;4903879;29;20050;-81
2021/12/26 01:53:06;;;;;;;4.13;1.80;;;-6.20;99.90;;;;;;4951435;29;20069;-81
2021/12/26 01:55:45;;;;;;;6.10;2.10;;;-6.10;99.90;;;;;;4918653;29;20070;-81
2021/12/26 01:58:21;;;;;;;6.00;1.85;;;-6.10;99.90;;;;;;4921388;29;20127;-81
2021/12/26 02:00:54;;;;;;;4.40;1.98;;;-6.10;99.90;;;;;;4923445;29;20126;-81
2021/12/26 02:03:20;;;;;;;4.40;2.00;;;-6.10;99.90;;;;;;4938398;29;20141;-81
2021/12/26 02:05:46;;;;;;;5.35;2.10;;;-6.10;99.90;;;;;;4938086;29;20045;-81
2021/12/26 02:08:13;;;;;;;6.35;2.30;;;-6.10;99.90;;;;;;4906853;29;20035;-80
2021/12/26 02:10:38;;;;;;;6.53;2.42;;;-6.20;99.90;;;;;;4953607;28;20053;-80
2021/12/26 02:13:05;;;;;;;6.28;2.00;;;-6.30;99.90;;;;;;4938650;29;20108;-81
2021/12/26 02:15:31;;;;;;;5.20;2.10;;;-6.40;99.90;;;;;;4954015;28;20094;-81
2021/12/26 02:17:57;;;;;;;4.75;2.10;;;-6.40;99.90;;;;;;4938073;28;20042;-81
2021/12/26 02:23:20;;;;;;;6.20;2.38;;;-6.50;99.90;;;;;;4954437;29;20447;-80
2021/12/26 02:28:12;;;;;;;6.35;2.40;;;-6.50;99.90;;;;;;4922269;29;20110;-80
2021/12/26 02:30:38;;;;;;;5.50;2.13;;;-6.60;99.90;;;;;;4953940;29;20125;-80
2021/12/26 02:33:07;;;;;;;5.45;2.03;;;-6.60;99.90;;;;;;4957176;28;20554;-80
2021/12/26 02:35:34;;;;;;;6.43;2.40;;;-6.60;99.90;;;;;;4957844;29;20043;-81
2021/12/26 02:38:01;;;;;;;5.38;2.05;;;-6.60;99.90;;;;;;4941854;29;20047;-81
2021/12/26 02:40:27;;;;;;;5.32;2.00;;;-6.50;99.90;;;;;;4957448;28;20086;-81
2021/12/26 02:42:53;;;;;;;5.75;2.30;;;-6.50;99.90;;;;;;4957837;29;20082;-81
2021/12/26 02:45:19;;;;;;;7.28;2.10;;;-6.60;99.90;;;;;;4957734;29;20047;-81
2021/12/26 02:47:48;;;;;;;5.45;2.20;;;-6.60;99.90;;;;;;4941865;29;20407;-81
2021/12/26 02:50:25;;;;;;;4.30;2.00;;;-6.60;99.90;;;;;;4958267;28;20039;-81
2021/12/26 02:52:52;;;;;;;5.68;2.30;;;-6.60;99.90;;;;;;4958349;29;20460;-81
2021/12/26 02:55:20;;;;;;;6.15;2.13;;;-6.60;99.90;;;;;;4956724;29;20499;-81
2021/12/26 02:57:51;;;;;;;6.78;2.58;;;-6.60;99.90;;;;;;4946984;29;20399;-81
2021/12/26 03:00:20;;;;;;;6.65;2.38;;;-6.60;99.90;;;;;;4953992;29;20079;-81
2021/12/26 03:02:50;;;;;;;5.82;2.42;;;-6.60;99.90;;;;;;4938246;29;20043;-81
2021/12/26 03:05:17;;;;;;;7.97;2.80;;;-6.60;99.90;;;;;;4937993;29;20070;-81
2021/12/26 03:07:44;;;;;;;6.38;2.45;;;-6.60;99.90;;;;;;4938057;29;20080;-81
2021/12/26 03:10:20;;;;;;;5.82;2.40;;;-6.70;99.90;;;;;;4938149;29;20550;-81
2021/12/26 03:12:46;;;;;;;9.15;2.50;;;-6.70;99.90;;;;;;4938323;29;20040;-81
2021/12/26 03:15:12;;;;;;;6.63;2.50;;;-6.70;99.90;;;;;;4938334;29;20495;-81
2021/12/26 03:17:39;;;;;;;6.80;2.35;;;-6.80;99.90;;;;;;4938339;29;20075;-81
2021/12/26 03:20:12;;;;;;;5.90;2.42;;;-6.80;99.90;;;;;;4937866;29;20055;-81
2021/12/26 03:22:38;;;;;;;7.43;2.63;;;-6.70;99.90;;;;;;4954117;29;20047;-81
2021/12/26 03:25:09;;;;;;;6.10;2.35;;;-6.70;99.90;;;;;;4954001;29;20048;-81
2021/12/26 03:27:35;;;;;;;5.68;2.45;;;-6.80;99.90;;;;;;4953429;29;20083;-81
2021/12/26 03:30:01;;;;;;;7.50;2.47;;;-6.80;99.90;;;;;;4938024;29;20090;-81
2021/12/26 03:32:26;;;;;;;5.45;2.42;;;-6.80;99.90;;;;;;4953856;29;20047;-81
2021/12/26 03:34:52;;;;;;;5.53;2.40;;;-6.80;99.90;;;;;;4906569;29;20391;-80
2021/12/26 03:37:19;;;;;;;7.50;2.60;;;-6.90;99.90;;;;;;4906137;29;20043;-80
2021/12/26 03:39:45;;;;;;;5.75;2.53;;;-6.90;99.90;;;;;;4938061;29;20495;-80
2021/12/26 03:42:11;;;;;;;5.43;2.20;;;-6.80;99.90;;;;;;4936717;29;20092;-80
2021/12/26 03:44:37;;;;;;;5.38;2.40;;;-6.10;99.90;;;;;;4937699;29;20036;-80
2021/12/26 03:47:03;;;;;;;4.53;2.03;;;-6.80;99.90;;;;;;4937157;29;20047;-80
2021/12/26 03:49:29;;;;;;;5.05;2.03;;;-6.80;99.90;;;;;;4937680;29;20071;-80
2021/12/26 03:51:55;;;;;;;6.57;2.55;;;-6.70;99.90;;;;;;4937532;29;20518;-80
2021/12/26 03:54:21;;;;;;;6.40;2.58;;;-6.80;99.90;;;;;;4937088;29;20134;-80
2021/12/26 03:56:47;;;;;;;5.15;2.25;;;-6.70;99.90;;;;;;4952693;28;20044;-80
2021/12/26 03:59:12;;;;;;;6.22;2.58;;;-6.80;99.90;;;;;;4905949;29;20045;-80
2021/12/26 04:01:38;;;;;;;5.63;2.10;;;-6.80;99.90;;;;;;4921385;29;20576;-80
2021/12/26 04:04:04;;;;;;;5.85;2.47;;;-6.80;99.90;;;;;;4906154;29;20165;-80
2021/12/26 04:06:30;;;;;;;6.85;2.40;;;-6.80;99.90;;;;;;4937053;29;20051;-80
2021/12/26 04:08:56;;;;;;;7.90;2.70;;;-6.90;99.90;;;;;;4905964;29;20131;-80
2021/12/26 04:11:23;;;;;;;5.57;2.45;;;-6.00;99.90;;;;;;4936578;29;20474;-80
2021/12/26 04:13:49;;;;;;;6.97;2.35;;;-6.80;99.90;;;;;;4905611;29;20048;-80
2021/12/26 04:16:15;;;;;;;5.78;2.42;;;-6.80;99.90;;;;;;4905369;29;20130;-80
2021/12/26 04:18:41;;;;;;;7.00;3.03;;;-6.80;99.90;;;;;;4937309;29;20085;-80
2021/12/26 04:21:07;;;;;;;6.32;2.60;;;-6.90;99.90;;;;;;4936817;29;20131;-80
2021/12/26 04:23:34;;;;;;;5.95;2.65;;;-6.90;99.90;;;;;;4936854;29;20036;-80
2021/12/26 04:26:00;;;;;;;5.85;2.53;;;-6.90;99.90;;;;;;4935938;29;20071;-80
2021/12/26 04:28:26;;;;;;;6.35;2.75;;;-7.00;99.90;;;;;;4905515;29;20047;-80
2021/12/26 04:30:53;;;;;;;5.55;2.63;;;-6.90;99.90;;;;;;4936839;29;20051;-80
2021/12/26 04:33:19;;;;;;;7.30;2.80;;;-7.00;99.90;;;;;;4905554;29;20126;-80
2021/12/26 04:35:45;;;;;;;7.55;2.75;;;-7.00;99.90;;;;;;4920683;29;20047;-80
2021/12/26 04:38:12;;;;;;;6.10;2.28;;;-7.00;99.90;;;;;;4936789;29;20044;-80
2021/12/26 04:40:37;;;;;;;6.53;2.90;;;-7.00;99.90;;;;;;4904716;29;20073;-81
2021/12/26 04:43:04;;;;;;;7.22;3.00;;;-7.00;99.90;;;;;;4920941;29;20043;-81
2021/12/26 04:45:30;;;;;;;6.57;3.00;;;-7.00;99.90;;;;;;4920564;29;20051;-81
2021/12/26 04:47:56;;;;;;;6.95;2.85;;;-6.20;99.90;;;;;;4936474;29;20403;-81
2021/12/26 04:50:24;;;;;;;8.05;3.10;;;-7.00;99.90;;;;;;4905258;29;20046;-81
2021/12/26 04:52:51;;;;;;;7.03;3.03;;;-7.00;99.90;;;;;;4952550;29;20093;-81
2021/12/26 04:55:23;;;;;;;5.97;2.65;;;-7.00;99.90;;;;;;4935048;29;20047;-81
2021/12/26 04:57:49;;;;;;;7.70;2.75;;;-7.00;99.90;;;;;;4936466;29;20058;-81
2021/12/26 05:00:19;;;;;;;6.35;2.90;;;-7.00;99.90;;;;;;4904955;29;20455;-81
2021/12/26 05:02:47;;;;;;;5.63;2.83;;;-6.40;99.90;;;;;;4952607;29;20036;-81
2021/12/26 05:05:13;;;;;;;8.20;3.17;;;-7.00;99.90;;;;;;4904611;29;20055;-81
2021/12/26 05:07:41;;;;;;;5.80;2.63;;;-6.50;99.90;;;;;;4952205;29;20074;-81
2021/12/26 05:10:08;;;;;;;6.97;2.75;;;-7.00;99.90;;;;;;4935778;29;20051;-81
2021/12/26 05:12:36;;;;;;;5.68;2.60;;;-7.10;99.90;;;;;;4951825;29;20090;-81
2021/12/26 05:15:04;;;;;;;6.63;3.00;;;-7.10;99.90;;;;;;4905458;29;20050;-81
2021/12/26 05:17:30;;;;;;;6.30;2.60;;;-7.10;99.90;;;;;;4936331;29;20051;-81
2021/12/26 05:19:56;;;;;;;5.90;2.75;;;-7.00;99.90;;;;;;4951866;29;20492;-81
2021/12/26 05:22:22;;;;;;;6.90;3.30;;;-7.00;99.90;;;;;;4935741;29;20051;-81
2021/12/26 05:24:48;;;;;;;6.00;2.40;;;-7.00;99.90;;;;;;4904196;29;20416;-81
2021/12/26 05:27:15;;;;;;;5.85;2.80;;;-7.00;99.90;;;;;;4950839;29;20130;-81
2021/12/26 05:29:41;;;;;;;5.93;2.50;;;-6.90;99.90;;;;;;4935985;29;20131;-81
2021/12/26 05:32:07;;;;;;;6.22;2.45;;;-6.90;99.90;;;;;;4903946;29;20126;-81
2021/12/26 05:34:33;;;;;;;6.35;2.75;;;-6.80;99.90;;;;;;4904672;29;20505;-81
2021/12/26 05:36:59;;;;;;;7.13;2.67;;;-5.80;99.90;;;;;;4951672;29;20507;-81
2021/12/26 05:39:25;;;;;;;6.93;2.90;;;-6.80;99.90;;;;;;4919920;29;20051;-81
2021/12/26 05:41:50;;;;;;;6.38;3.28;;;-6.90;99.90;;;;;;4934798;29;20043;-81
2021/12/26 05:44:16;;;;;;;6.82;2.70;;;-6.80;99.90;;;;;;4903970;29;20079;-81
2021/12/26 05:46:42;;;;;;;5.88;2.70;;;-6.80;99.90;;;;;;4943327;29;20154;-81
2021/12/26 05:49:08;;;;;;;6.03;2.72;;;-6.80;99.90;;;;;;4954495;29;20043;-81
2021/12/26 05:51:34;;;;;;;6.32;3.00;;;-6.20;99.90;;;;;;4922708;29;20094;-81
2021/12/26 05:54:00;;;;;;;6.05;2.90;;;-6.80;99.90;;;;;;4970869;28;20043;-81
2021/12/26 05:56:26;;;;;;;6.25;2.95;;;-6.80;99.90;;;;;;4954005;28;20050;-81
2021/12/26 05:58:52;;;;;;;6.43;2.70;;;-6.80;99.90;;;;;;4954375;29;20035;-81
2021/12/26 06:01:17;;;;;;;5.75;2.60;;;-6.90;99.90;;;;;;4970442;28;20130;-81
2021/12/26 06:03:43;;;;;;;5.50;2.67;;;-6.90;99.90;;;;;;4922733;29;20039;-81
2021/12/26 06:06:09;;;;;;;6.40;2.80;;;-6.90;99.90;;;;;;4953850;28;20101;-81
2021/12/26 06:08:35;;;;;;;6.65;2.88;;;-7.00;99.90;;;;;;4953995;28;20129;-81
2021/12/26 06:11:00;;;;;;;5.45;2.80;;;-7.00;99.90;;;;;;4937723;29;20043;-81
2021/12/26 06:13:26;;;;;;;6.57;2.72;;;-7.00;99.90;;;;;;4954140;28;20046;-81
2021/12/26 06:15:54;;;;;;;6.68;2.72;;;-7.10;99.90;;;;;;4937930;29;20039;-81
2021/12/26 06:18:20;;;;;;;6.97;3.45;;;-7.10;99.90;;;;;;4954341;28;20047;-81
2021/12/26 06:20:46;;;;;;;8.75;4.18;;;-6.10;99.90;;;;;;4969945;28;20085;-81
2021/12/26 06:23:12;;;;;;;9.43;3.65;;;-7.10;99.90;;;;;;4954350;29;20043;-81
2021/12/26 06:25:39;;;;;;;5.43;2.80;;;-7.10;99.90;;;;;;4921672;29;20073;-81
2021/12/26 06:28:05;;;;;;;6.75;3.00;;;-7.10;99.90;;;;;;4954032;28;20050;-81
2021/12/26 06:30:31;;;;;;;5.88;2.72;;;-7.10;99.90;;;;;;4953915;29;20483;-81
2021/12/26 06:32:57;;;;;;;6.97;2.92;;;-7.10;99.90;;;;;;4954121;28;20054;-81
2021/12/26 06:35:22;;;;;;;5.72;2.80;;;-7.10;99.90;;;;;;4953677;29;20035;-81
2021/12/26 06:37:48;;;;;;;6.15;2.88;;;-7.10;99.90;;;;;;4954023;29;20054;-81
2021/12/26 06:40:14;;;;;;;6.10;3.00;;;-7.10;99.90;;;;;;4953014;29;20430;-81
2021/12/26 06:42:43;;;;;;;7.13;2.88;;;-7.10;99.90;;;;;;4937889;29;20043;-81
2021/12/26 06:45:11;;;;;;;6.90;3.10;;;-7.10;99.90;;;;;;4938413;29;20402;-81
2021/12/26 06:47:37;;;;;;;7.32;3.13;;;-7.10;99.90;;;;;;4937933;29;20047;-81
2021/12/26 06:50:05;;;;;;;5.50;2.80;;;-7.00;99.90;;;;;;4937804;29;20122;-81
2021/12/26 06:52:31;;;;;;;8.30;3.67;;;-7.10;99.90;;;;;;4947375;29;20039;-81
2021/12/26 06:54:56;;;;;;;7.07;3.53;;;-7.10;99.90;;;;;;4937560;29;20565;-81
2021/12/26 06:57:22;;;;;;;6.65;2.90;;;-7.00;99.90;;;;;;4936872;29;20396;-81
2021/12/26 06:59:48;;;;;;;8.65;3.20;;;-7.00;99.90;;;;;;4953263;29;20415;-81
2021/12/26 07:02:14;;;;;;;7.85;3.30;;;-7.00;99.90;;;;;;4953721;29;20465;-81
2021/12/26 07:04:40;;;;;;;5.80;2.85;;;-7.00;99.90;;;;;;4938089;29;20054;-81
2021/12/26 07:07:05;;;;;;;7.15;2.95;;;-7.00;99.90;;;;;;4937734;29;20043;-81
2021/12/26 07:09:31;;;;;;;5.65;2.83;;;-6.90;99.90;;;;;;4954119;28;20471;-81
2021/12/26 07:11:57;;;;;;;7.18;3.50;;;-6.90;99.90;;;;;;4952810;29;20075;-81
2021/12/26 07:14:23;;;;;;;7.80;3.33;;;-6.90;99.90;;;;;;4934429;29;20471;-81
2021/12/26 07:16:49;;;;;;;7.32;3.13;;;-6.80;99.90;;;;;;4953085;29;20537;-81
2021/12/26 07:19:14;;;;;;;7.05;3.60;;;-6.90;99.90;;;;;;4955906;28;20047;-81
2021/12/26 07:21:41;;;;;;;8.88;4.40;;;-6.90;99.90;;;;;;4941190;29;20043;-81
2021/12/26 07:24:07;;;;;;;7.65;4.03;;;-6.90;99.90;;;;;;4941419;29;20078;-81
2021/12/26 07:26:35;;;;;;;8.73;4.03;;;-6.90;99.90;;;;;;4940002;28;20045;-81
2021/12/26 07:29:00;;;;;;;7.78;3.47;;;-6.80;99.90;;;;;;4956976;28;20039;-81
2021/12/26 07:31:27;;;;;;;7.32;3.47;;;-6.70;99.90;;;;;;4973153;28;20391;-81
2021/12/26 07:33:53;;;;;;;7.90;3.70;;;-6.70;99.90;;;;;;4957046;29;20226;-81
2021/12/26 07:36:19;;;;;;;8.45;3.78;;;-6.80;99.90;;;;;;4957275;29;20596;-81
2021/12/26 07:38:45;;;;;;;7.35;3.60;;;-6.80;99.90;;;;;;4956791;28;20054;-81
2021/12/26 07:41:10;;;;;;;7.88;4.05;;;-6.70;99.90;;;;;;4939600;29;20074;-81
2021/12/26 07:43:36;;;;;;;8.13;3.88;;;-6.60;99.90;;;;;;4972921;28;20082;-81
2021/12/26 07:46:02;;;;;;;7.57;4.25;;;-6.60;99.90;;;;;;4956996;29;20606;-81
2021/12/26 07:48:28;;;;;;;10.57;4.25;;;-6.60;99.90;;;;;;4940248;29;20178;-80
2021/12/26 07:50:53;;;;;;;7.93;4.50;;;-6.60;99.90;;;;;;4956055;28;20035;-81
2021/12/26 07:53:19;;;;;;;9.48;4.03;;;-6.60;99.90;;;;;;4969844;28;20050;-81
2021/12/26 07:55:45;;;;;;;8.25;2.90;;;-6.60;99.90;;;;;;4907560;29;20055;-81
2021/12/26 07:58:11;;;;;;;7.40;3.67;;;-6.50;99.90;;;;;;4937426;29;20061;-81
2021/12/26 08:00:37;;;;;;;8.35;4.10;;;-6.50;99.90;;;;;;4955887;29;20035;-81
2021/12/26 08:03:03;;;;;;;7.65;3.25;;;-6.50;99.90;;;;;;4953375;29;20040;-81
2021/12/26 08:05:29;;;;;;;8.57;4.00;;;-6.40;99.90;;;;;;4955468;29;20403;-81
2021/12/26 08:07:54;;;;;;;8.95;3.70;;;-6.30;99.90;;;;;;4955705;29;20039;-81
2021/12/26 08:10:20;;;;;;;7.43;4.20;;;-6.20;99.90;;;;;;4935962;29;20040;-81
2021/12/26 08:12:46;;;;;;;9.82;4.43;;;-6.00;99.90;;;;;;4936147;28;20047;-81
2021/12/26 08:15:12;;;;;;;8.20;4.35;;;-5.90;99.90;;;;;;4938139;29;20105;-82
2021/12/26 08:17:38;;;;;;;9.60;3.92;;;-5.70;99.90;;;;;;4939014;29;20126;-81
2021/12/26 08:20:05;;;;;;;9.13;4.00;;;-5.60;99.90;;;;;;4905586;29;20138;-80
2021/12/26 08:22:31;;;;;;;8.18;3.85;;;-5.40;99.90;;;;;;4938619;29;20062;-80
2021/12/26 08:24:57;;;;;;;8.43;4.15;;;-5.40;99.90;;;;;;4938955;29;20050;-80
2021/12/26 08:27:23;;;;;;;8.77;4.30;;;-5.30;99.90;;;;;;4940471;29;20058;-81
2021/12/26 08:29:49;;;;;;;8.57;4.35;;;-5.20;99.90;;;;;;4937988;29;20039;-81
2021/12/26 08:32:17;;;;;;;8.70;4.15;;;-5.10;99.90;;;;;;4939858;29;20119;-81
2021/12/26 08:34:44;;;;;;;7.47;4.10;;;-5.20;99.90;;;;;;4931455;29;20047;-81
2021/12/26 08:37:10;;;;;;;9.52;4.15;;;-5.20;99.90;;;;;;4967602;28;20117;-81
2021/12/26 08:39:39;;;;;;;8.07;4.28;;;-5.20;99.90;;;;;;4938809;29;20410;-81
2021/12/26 08:42:08;;;;;;;8.18;4.10;;;-5.10;99.90;;;;;;4953499;29;20070;-82
2021/12/26 08:44:35;;;;;;;7.85;4.15;;;-5.00;99.90;;;;;;4954286;29;20091;-82
2021/12/26 08:47:03;;;;;;;8.55;4.35;;;-4.90;99.90;;;;;;4938194;29;20051;-82
2021/12/26 08:49:29;;;;;;;9.10;4.70;;;-4.80;99.90;;;;;;4954761;29;20046;-81
2021/12/26 08:51:55;;;;;;;10.38;4.70;;;-4.80;99.90;;;;;;4953355;29;20047;-80
2021/12/26 08:54:22;;;;;;;8.85;4.45;;;-4.70;99.90;;;;;;4953843;28;20114;-82
2021/12/26 08:56:49;;;;;;;9.45;4.55;;;-4.60;99.90;;;;;;4906100;29;20054;-82
2021/12/26 08:59:14;;;;;;;8.63;4.00;;;-4.50;99.90;;;;;;4938104;29;20058;-82
2021/12/26 09:01:41;;;;;;;7.70;4.45;;;-4.30;99.90;;;;;;4954053;28;20035;-82
2021/12/26 09:04:06;;;;;;;9.75;4.50;;;-4.20;99.90;;;;;;4953286;29;20051;-80
2021/12/26 09:06:33;;;;;;;9.38;4.10;;;-4.10;99.90;;;;;;4938689;29;20384;-81
2021/12/26 09:08:59;;;;;;;8.23;3.88;;;-4.00;98.60;;;;;;4953934;29;20053;-81
2021/12/26 09:11:25;;;;;;;8.35;3.80;;;-3.90;99.10;;;;;;4936881;29;20047;-81
2021/12/26 09:13:50;;;;;;;8.10;3.78;;;-3.90;97.60;;;;;;4937803;29;20035;-81
2021/12/26 09:16:16;;;;;;;6.70;2.92;;;-3.00;98.80;;;;;;4941339;28;20046;-81
2021/12/26 09:18:42;;;;;;;9.05;4.70;;;-3.80;97.70;;;;;;4938433;29;20039;-81
2021/12/26 09:21:08;;;;;;;6.00;2.83;;;-3.70;98.60;;;;;;4937376;29;20042;-81
2021/12/26 09:23:34;;;;;;;6.97;3.30;;;-3.70;96.40;;;;;;4955399;28;20595;-81
2021/12/26 09:26:00;;;;;;;6.82;3.90;;;-3.60;96.90;;;;;;4944096;28;20047;-81
2021/12/26 09:28:26;;;;;;;8.00;3.80;;;-3.60;96.20;;;;;;4941625;29;20055;-81
2021/12/26 09:30:52;;;;;;;8.35;4.07;;;-2.60;96.50;;;;;;4969874;28;20061;-81
2021/12/26 09:33:19;;;;;;;8.73;4.07;;;-2.60;97.40;;;;;;4937729;29;20058;-81
2021/12/26 09:35:51;;;;;;;7.88;3.85;;;-3.40;95.70;;;;;;4927642;29;20040;-81
2021/12/26 09:38:18;;;;;;;8.20;4.47;;;-2.80;96.80;;;;;;4969948;28;20043;-82
2021/12/26 09:40:44;;;;;;;7.13;3.67;;;-3.40;96.00;;;;;;4952087;28;20040;-82
2021/12/26 09:43:09;;;;;;;7.80;4.15;;;-2.60;97.50;;;;;;4969594;28;20402;-81
2021/12/26 09:45:35;;;;;;;7.68;4.13;;;-3.20;97.60;;;;;;4952603;29;20043;-81
2021/12/26 09:48:01;;;;;;;9.25;4.57;;;-3.20;94.90;;;;;;4938940;28;20046;-81
2021/12/26 09:50:27;;;;;;;6.95;3.40;;;-2.30;96.90;;;;;;4938083;29;20042;-81
2021/12/26 09:52:53;;;;;;;9.02;4.50;;;-2.90;93.10;;;;;;4936923;29;20174;-81
2021/12/26 09:55:20;;;;;;;7.25;3.53;;;-2.90;94.70;;;;;;4935843;28;20118;-81
2021/12/26 09:57:46;;;;;;;7.43;3.90;;;-3.00;97.10;;;;;;4969471;28;20043;-81
2021/12/26 10:00:38;;;;;;;8.35;3.42;;;-2.80;96.40;;;;;;4937107;29;20505;-81
2021/12/26 10:03:23;;;;;;;5.07;2.67;;;-2.70;94.30;;;;;;4951809;29;20047;-81
2021/12/26 10:06:05;;;;;;;8.45;4.03;;;-2.70;95.40;;;;;;4967562;28;20140;-81
2021/12/26 10:08:34;;;;;;;5.88;2.78;;;-2.60;95.20;;;;;;4951741;29;20040;-82
2021/12/26 10:11:14;;;;;;;7.45;3.67;;;-2.50;93.00;;;;;;4947659;29;20051;-82
2021/12/26 10:13:48;;;;;;;6.82;3.10;;;-2.50;95.00;;;;;;4951854;29;20066;-82
2021/12/26 10:16:18;;;;;;;6.32;2.60;;;-2.20;95.80;;;;;;4936065;29;20071;-82
2021/12/26 10:18:45;;;;;;;5.80;3.30;;;-2.30;95.20;;;;;;4937326;29;20039;-82
2021/12/26 10:21:31;;;;;;;6.38;3.25;;;-2.20;94.10;;;;;;4953509;29;20047;-82
2021/12/26 10:24:02;;;;;;;9.82;3.83;;;-2.30;95.30;;;;;;4953397;29;20117;-81
2021/12/26 10:26:31;;;;;;;5.78;2.97;;;-2.10;94.60;;;;;;4952396;29;20047;-82
2021/12/26 10:29:25;;;;;;;4.82;2.47;;;-2.10;94.20;;;;;;4936915;29;20487;-82
2021/12/26 10:32:08;;;;;;;6.20;3.13;;;-2.00;95.00;;;;;;4935273;29;20130;-82
2021/12/26 10:34:48;;;;;;;7.60;4.03;;;-2.00;95.50;;;;;;4952652;29;20118;-81
2021/12/26 10:37:15;;;;;;;7.40;3.25;;;-1.90;97.00;;;;;;4927865;29;20519;-82
2021/12/26 10:39:44;;;;;;;5.82;2.25;;;-1.80;96.50;;;;;;4934443;29;20127;-82
2021/12/26 10:42:13;;;;;;;7.32;3.42;;;-1.80;93.50;;;;;;4932238;29;20446;-82
2021/12/26 10:45:00;;;;;;;8.38;3.90;;;-1.10;95.80;;;;;;4952841;29;20066;-81
2021/12/26 10:47:32;;;;;;;6.82;3.38;;;-1.70;95.50;;;;;;4952831;29;20044;-81
2021/12/26 10:50:13;;;;;;;7.95;3.95;;;-1.70;95.20;;;;;;4936579;29;20039;-81
2021/12/26 10:52:51;;;;;;;6.10;3.13;;;-1.70;96.30;;;;;;4953582;28;20559;-81
2021/12/26 10:55:20;;;;;;;7.03;3.85;;;-1.60;96.10;;;;;;4956587;29;20094;-81
2021/12/26 10:57:51;;;;;;;8.25;4.18;;;-1.60;95.70;;;;;;4956799;28;20035;-81
2021/12/26 11:00:18;;;;;;;5.45;2.25;;;-1.30;97.20;;;;;;4957037;29;20122;-81
2021/12/26 11:02:51;;;;;;;7.68;4.05;;;-1.50;95.00;;;;;;4941622;29;20043;-82
2021/12/26 11:05:25;;;;;;;5.75;3.17;;;-1.50;98.10;;;;;;4957616;29;20065;-82
2021/12/26 11:07:56;;;;;;;7.97;4.15;;;-1.40;97.70;;;;;;4957215;29;20107;-82
2021/12/26 11:10:30;;;;;;;5.75;2.97;;;-1.30;97.50;;;;;;4955914;28;20123;-82
2021/12/26 11:12:59;;;;;;;8.90;4.43;;;-1.30;96.90;;;;;;4942366;29;20495;-82
2021/12/26 11:15:29;;;;;;;7.28;4.00;;;-0.40;97.60;;;;;;4957193;29;20053;-82
2021/12/26 11:18:00;;;;;;;7.30;3.65;;;-1.20;97.10;;;;;;4973671;28;20047;-82
2021/12/26 11:20:46;;;;;;;4.78;2.50;;;-1.10;96.40;;;;;;4941290;29;20051;-82
2021/12/26 11:23:33;;;;;;;7.03;2.88;;;-0.40;96.80;;;;;;4957314;29;20051;-82
2021/12/26 11:26:13;;;;;;;8.45;4.35;;;-1.10;97.40;;;;;;4956069;29;20051;-82
2021/12/26 11:28:43;;;;;;;7.78;4.20;;;-1.10;98.30;;;;;;4957275;29;20495;-82
2021/12/26 11:31:12;;;;;;;8.02;3.92;;;-1.10;98.60;;;;;;4973451;28;20395;-82
2021/12/26 11:33:39;;;;;;;5.10;2.65;;;-1.00;99.50;;;;;;4956265;29;20047;-82
2021/12/26 11:36:09;;;;;;;7.07;2.83;;;-0.80;95.80;;;;;;4941069;29;20045;-82
2021/12/26 11:38:36;;;;;;;4.97;2.42;;;-0.90;97.10;;;;;;4941253;29;20046;-82
2021/12/26 11:41:05;;;;;;;6.53;3.55;;;-0.90;97.30;;;;;;4939543;29;20074;-82
2021/12/26 11:43:52;;;;;;;8.30;3.72;;;-0.30;99.60;;;;;;4940190;29;20503;-82
2021/12/26 11:46:55;;;;;;;7.35;3.25;;;-0.90;98.30;;;;;;4956684;29;20077;-82
2021/12/26 11:50:04;;;;;;;7.22;3.78;;;-0.80;96.80;;;;;;4940403;29;20550;-81
2021/12/26 11:53:03;;;;;;;5.97;2.33;;;-0.80;97.80;;;;;;4954329;29;20403;-81
2021/12/26 11:55:44;;;;;;;4.97;2.63;;;-0.70;99.80;;;;;;4970790;28;20058;-81
2021/12/26 11:58:35;;;;;;;6.10;2.53;;;-0.70;97.70;;;;;;4953217;29;20039;-81
2021/12/26 12:01:02;;;;;;;6.82;2.45;;;-0.60;95.60;;;;;;4970660;28;20384;-81
2021/12/26 12:03:30;;;;;;;7.40;3.95;;;-0.60;97.50;;;;;;4939440;28;20122;-81
2021/12/26 12:05:58;;;;;;;6.40;3.55;;;-0.70;99.50;;;;;;4953498;29;20050;-81
2021/12/26 12:08:23;;;;;;;5.95;2.47;;;-0.60;97.70;;;;;;4939754;28;20043;-81
2021/12/26 12:10:52;;;;;;;6.45;3.35;;;-0.60;97.40;;;;;;4953442;29;20503;-81
2021/12/26 12:13:27;;;;;;;8.40;4.53;;;-0.60;99.50;;;;;;4936313;29;20506;-81
2021/12/26 12:16:14;;;;;;;7.18;3.40;;;-0.60;98.90;;;;;;4938988;29;20085;-81
2021/12/26 12:18:58;;;;;;;6.15;2.85;;;-0.60;96.90;;;;;;4927937;29;20043;-82
2021/12/26 12:21:46;;;;;;;7.60;3.90;;;-0.40;97.20;;;;;;4968403;28;20060;-82
2021/12/26 12:24:14;;;;;;;7.40;3.78;;;0.30;99.60;;;;;;4940248;29;20031;-82
2021/12/26 12:26:42;;;;;;;7.95;3.45;;;-0.50;99.80;;;;;;4938549;29;20102;-82
2021/12/26 12:29:11;;;;;;;7.60;3.53;;;-0.40;99.10;;;;;;4954816;29;20547;-83
2021/12/26 12:31:37;;;;;;;7.07;3.10;;;-0.40;98.80;;;;;;4938944;29;20047;-82
2021/12/26 12:34:08;;;;;;;8.15;3.85;;;-0.40;96.90;;;;;;4937181;29;20123;-81
2021/12/26 12:36:39;;;;;;;7.20;3.42;;;-0.50;96.40;;;;;;4952462;29;20032;-82
2021/12/26 12:39:14;;;;;;;7.28;3.35;;;-0.50;98.50;;;;;;4952915;29;20047;-82
2021/12/26 12:41:47;;;;;;;8.20;4.47;;;-0.50;99.20;;;;;;4953487;29;20035;-82
2021/12/26 12:44:35;;;;;;;7.18;3.45;;;-0.40;98.40;;;;;;4953268;29;20046;-82
2021/12/26 12:47:13;;;;;;;9.27;3.65;;;0.70;97.60;;;;;;4954103;29;20043;-82
2021/12/26 12:49:52;;;;;;;5.38;2.53;;;-0.50;99.60;;;;;;4955224;29;20047;-82
2021/12/26 12:52:38;;;;;;;6.63;2.80;;;-0.40;98.90;;;;;;4955124;29;20046;-82
2021/12/26 12:55:18;;;;;;;7.50;4.00;;;-0.30;99.20;;;;;;4920500;29;20154;-82
2021/12/26 12:57:50;;;;;;;5.55;2.60;;;0.20;97.70;;;;;;4920696;29;20403;-82
2021/12/26 13:00:25;;;;;;;7.57;3.63;;;-0.30;98.50;;;;;;4920593;29;20507;-82
2021/12/26 13:02:51;;;;;;;6.93;3.05;;;0.40;98.40;;;;;;4920254;29;20047;-82